createdAt,value
2022-08-23T00:01:21.786Z,99997.03
2022-08-23T00:03:53.750Z,99992.94
2022-08-23T00:06:22.610Z,100004.41
2022-08-23T00:08:51.930Z,100004.97
2022-08-23T00:11:28.090Z,100005.22
2022-08-23T00:13:56.178Z,100004.44
2022-08-23T00:16:25.266Z,100001.97
2022-08-23T00:18:52.921Z,99996.25
2022-08-23T00:21:21.036Z,99996.25
2022-08-23T00:23:48.777Z,100000.88
2022-08-23T00:26:16.616Z,99997.06
2022-08-23T00:28:44.323Z,99989.94
2022-08-23T00:31:12.050Z,99994.03
2022-08-23T00:33:41.375Z,99992.41
2022-08-23T00:36:09.315Z,99986.69
2022-08-23T00:38:37.132Z,99985.84
2022-08-23T00:41:06.007Z,99986.13
2022-08-23T00:43:56.393Z,99987.22
2022-08-23T00:46:55.301Z,99991.59
2022-08-23T00:49:25.431Z,99988.56
2022-08-23T00:51:59.690Z,99979.81
2022-08-23T00:54:30.327Z,99979.53
2022-08-23T00:57:01.125Z,99978.72
2022-08-23T00:59:28.939Z,99980.09
2022-08-23T01:01:57.453Z,99987.44
2022-08-23T01:04:28.544Z,99988.25
2022-08-23T01:07:02.725Z,99995.00
2022-08-23T01:09:30.974Z,99992.88
2022-08-23T01:12:07.947Z,99996.91
2022-08-23T01:14:38.879Z,99986.53
2022-08-23T01:17:11.118Z,99992.78
2022-08-23T01:19:45.036Z,99994.06
2022-08-23T01:22:20.812Z,99992.13
2022-08-23T01:25:07.131Z,99998.34
2022-08-23T01:27:37.169Z,99993.50
2022-08-23T01:30:08.130Z,100006.00
2022-08-23T01:32:40.954Z,99999.78
2022-08-23T01:35:09.940Z,100002.22
2022-08-23T01:37:38.498Z,100002.50
2022-08-23T01:40:09.094Z,99996.72
2022-08-23T01:42:36.830Z,99994.53
2022-08-23T01:45:05.431Z,99999.19
2022-08-23T01:47:33.167Z,99995.09
2022-08-23T01:50:00.817Z,99997.53
2022-08-23T01:52:28.617Z,99999.41
2022-08-23T01:54:57.254Z,99996.94
2022-08-23T01:57:26.319Z,100000.47
2022-08-23T01:59:53.962Z,99992.78
2022-08-23T02:02:21.586Z,99998.78
2022-08-23T02:04:49.334Z,99994.97
2022-08-23T02:07:16.954Z,99995.25
2022-08-23T02:09:44.758Z,100000.16
2022-08-23T02:12:12.565Z,99991.94
2022-08-23T02:14:42.175Z,99994.09
2022-08-23T02:17:11.691Z,99991.34
2022-08-23T02:19:40.062Z,100002.78
2022-08-23T02:22:10.053Z,100000.28
2022-08-23T02:24:42.103Z,99999.72
2022-08-23T02:27:09.912Z,100014.38
2022-08-23T02:29:39.397Z,100014.59
2022-08-23T02:32:10.141Z,100014.59
2022-08-23T02:37:25.944Z,100018.53
2022-08-23T02:39:53.864Z,100019.94
2022-08-23T02:42:21.756Z,100025.66
2022-08-23T02:44:49.461Z,100022.84
2022-08-23T02:47:18.908Z,100023.91
2022-08-23T02:49:46.866Z,100024.19
2022-08-23T02:52:15.170Z,100023.91
2022-08-23T02:54:45.399Z,100023.56
2022-08-23T02:57:13.416Z,100020.47
2022-08-23T02:59:41.283Z,100031.88
2022-08-23T03:02:09.377Z,100020.38
2022-08-23T03:04:38.625Z,100023.34
2022-08-23T03:07:06.538Z,100021.91
2022-08-23T03:09:34.225Z,100025.41
2022-08-23T03:12:01.993Z,100031.00
2022-08-23T03:14:29.790Z,100025.81
2022-08-23T03:16:59.094Z,100028.84
2022-08-23T03:19:26.789Z,100030.75
2022-08-23T03:21:55.942Z,100036.13
2022-08-23T03:24:23.722Z,100041.75
2022-08-23T03:26:51.448Z,100038.75
2022-08-23T03:29:19.739Z,100034.59
2022-08-23T03:31:47.318Z,100038.84
2022-08-23T03:34:14.931Z,100040.63
2022-08-23T03:36:42.644Z,100046.34
2022-08-23T03:39:12.524Z,100041.72
2022-08-23T03:41:40.243Z,100040.31
2022-08-23T03:44:08.719Z,100044.56
2022-08-23T03:46:37.270Z,100043.28
2022-08-23T03:49:05.434Z,100045.03
2022-08-23T03:51:35.141Z,100052.34
2022-08-23T03:54:03.704Z,100055.22
2022-08-23T03:56:34.690Z,100050.88
2022-08-23T03:59:08.929Z,100046.13
2022-08-23T04:01:36.731Z,100057.25
2022-08-23T04:04:05.220Z,100046.38
2022-08-23T04:06:34.114Z,100060.63
2022-08-23T04:09:01.804Z,100057.84
2022-08-23T04:11:30.280Z,100056.94
2022-08-23T04:13:59.309Z,100057.72
2022-08-23T04:16:27.167Z,100064.84
2022-08-23T04:18:54.902Z,100073.25
2022-08-23T04:21:24.805Z,100071.44
2022-08-23T04:23:52.775Z,100077.34
2022-08-23T04:26:21.389Z,100065.84
2022-08-23T04:28:49.236Z,100073.75
2022-08-23T04:31:19.481Z,100082.63
2022-08-23T04:33:52.374Z,100082.53
2022-08-23T04:36:20.737Z,100088.06
2022-08-23T04:38:51.289Z,100094.00
2022-08-23T04:41:37.298Z,100094.81
2022-08-23T04:44:05.556Z,100099.91
2022-08-23T04:46:34.844Z,100098.75
2022-08-23T04:49:03.136Z,100104.06
2022-08-23T04:51:30.922Z,100091.94
2022-08-23T04:53:58.641Z,100100.16
2022-08-23T04:56:26.280Z,100099.34
2022-08-23T04:58:54.069Z,100097.28
2022-08-23T05:01:23.980Z,100101.84
2022-08-23T05:03:53.355Z,100106.06
2022-08-23T05:06:23.142Z,100106.38
2022-08-23T05:08:50.886Z,100113.03
2022-08-23T05:11:19.739Z,100113.69
2022-08-23T05:13:48.167Z,100117.41
2022-08-23T05:16:16.175Z,100116.72
2022-08-23T05:18:43.862Z,100113.28
2022-08-23T05:21:17.544Z,100114.13
2022-08-23T05:23:45.519Z,100111.47
2022-08-23T05:26:19.341Z,100119.03
2022-08-23T05:28:49.344Z,100119.56
2022-08-23T05:31:19.721Z,100125.38
2022-08-23T05:33:47.619Z,100128.34
2022-08-23T05:36:18.259Z,100133.16
2022-08-23T05:38:46.937Z,100135.75
2022-08-23T05:41:15.558Z,100131.88
2022-08-23T05:43:43.833Z,100139.97
2022-08-23T05:46:14.419Z,100145.09
2022-08-23T05:48:46.884Z,100155.50
2022-08-23T05:51:18.959Z,100155.00
2022-08-23T05:53:47.719Z,100159.69
2022-08-23T05:56:17.853Z,100149.25
2022-08-23T05:58:47.503Z,100145.13
2022-08-23T06:01:16.238Z,100151.91
2022-08-23T06:03:44.606Z,100145.56
2022-08-23T06:06:14.802Z,100135.69
2022-08-23T06:08:45.752Z,100136.56
2022-08-23T06:11:15.490Z,100122.81
2022-08-23T06:13:45.222Z,100124.56
2022-08-23T06:16:15.317Z,100132.63
2022-08-23T06:18:44.371Z,100126.88
2022-08-23T06:21:13.694Z,100130.84
2022-08-23T06:23:43.121Z,100124.25
2022-08-23T06:26:12.090Z,100117.88
2022-08-23T06:28:50.314Z,100124.06
2022-08-23T06:31:40.843Z,100117.81
2022-08-23T06:34:08.879Z,100117.31
2022-08-23T06:36:37.264Z,100114.84
2022-08-23T06:39:07.436Z,100116.66
2022-08-23T06:41:35.549Z,100119.53
2022-08-23T06:44:03.943Z,100120.72
2022-08-23T06:46:32.985Z,100124.78
2022-08-23T06:49:05.072Z,100124.91
2022-08-23T06:51:35.679Z,100113.09
2022-08-23T06:54:07.888Z,100115.94
2022-08-23T06:56:38.532Z,100117.34
2022-08-23T06:59:07.277Z,100109.22
2022-08-23T07:01:46.340Z,100129.06
2022-08-23T07:04:16.457Z,100129.63
2022-08-23T07:06:44.806Z,100125.97
2022-08-23T07:09:14.544Z,100125.81
2022-08-23T07:11:42.520Z,100119.56
2022-08-23T07:14:13.375Z,100120.41
2022-08-23T07:16:44.708Z,100114.66
2022-08-23T07:19:13.524Z,100119.13
2022-08-23T07:21:42.393Z,100117.41
2022-08-23T07:24:10.251Z,100103.66
2022-08-23T07:26:39.640Z,100116.63
2022-08-23T07:29:07.896Z,100123.31
2022-08-23T07:31:40.562Z,100117.75
2022-08-23T07:34:08.709Z,100119.28
2022-08-23T07:36:37.171Z,100120.69
2022-08-23T07:39:06.860Z,100116.47
2022-08-23T07:41:35.729Z,100122.47
2022-08-23T07:44:06.279Z,100119.00
2022-08-23T07:46:34.556Z,100125.06
2022-08-23T07:49:05.267Z,100121.00
2022-08-23T07:51:35.339Z,100117.47
2022-08-23T07:54:04.443Z,100125.91
2022-08-23T07:56:32.319Z,100127.63
2022-08-23T07:59:01.844Z,100127.78
2022-08-23T08:01:31.235Z,100128.97
2022-08-23T08:04:00.633Z,100110.19
2022-08-23T08:06:30.604Z,100124.53
2022-08-23T08:08:59.765Z,100126.13
2022-08-23T08:11:34.276Z,100123.47
2022-08-23T08:14:05.672Z,100133.03
2022-08-23T08:16:37.984Z,100126.28
2022-08-23T08:19:08.659Z,100131.13
2022-08-23T08:21:41.868Z,100139.53
2022-08-23T08:24:13.046Z,100130.97
2022-08-23T08:26:41.406Z,100139.09
2022-08-23T08:29:11.901Z,100126.50
2022-08-23T08:31:42.415Z,100138.75
2022-08-23T08:34:10.780Z,100132.56
2022-08-23T08:36:41.763Z,100133.50
2022-08-23T08:39:11.883Z,100135.94
2022-08-23T08:41:55.123Z,100141.84
2022-08-23T08:44:39.665Z,100145.91
2022-08-23T08:47:15.228Z,100153.09
2022-08-23T08:49:48.903Z,100150.06
2022-08-23T08:52:19.510Z,100150.22
2022-08-23T08:54:50.022Z,100149.91
2022-08-23T08:57:25.470Z,100149.56
2022-08-23T09:00:02.009Z,100153.28
2022-08-23T09:02:35.067Z,100154.09
2022-08-23T09:05:08.251Z,100155.81
2022-08-23T09:07:50.065Z,100154.13
2022-08-23T09:10:45.661Z,100163.50
2022-08-23T09:13:45.523Z,100152.28
2022-08-23T09:16:25.826Z,100151.28
2022-08-23T09:18:55.570Z,100146.78
2022-08-23T09:21:23.604Z,100144.13
2022-08-23T09:24:00.644Z,100137.06
2022-08-23T09:26:31.151Z,100142.28
2022-08-23T09:29:02.733Z,100153.56
2022-08-23T09:31:42.578Z,100143.53
2022-08-23T09:34:17.298Z,100138.56
2022-08-23T09:36:45.134Z,100128.38
2022-08-23T09:39:30.514Z,100132.94
2022-08-23T09:42:00.228Z,100146.75
2022-08-23T09:44:39.829Z,100143.66
2022-08-23T09:47:12.923Z,100138.59
2022-08-23T09:49:44.794Z,100135.75
2022-08-23T09:52:22.179Z,100137.50
2022-08-23T09:54:58.804Z,100139.59
2022-08-23T09:57:35.308Z,100138.66
2022-08-23T10:00:23.558Z,100128.50
2022-08-23T10:02:51.410Z,100124.84
2022-08-23T10:05:29.343Z,100119.19
2022-08-23T10:08:00.054Z,100134.53
2022-08-23T10:10:33.598Z,100137.13
2022-08-23T10:13:02.874Z,100125.53
2022-08-23T10:15:42.074Z,100127.66
2022-08-23T10:18:18.048Z,100119.28
2022-08-23T10:20:57.710Z,100121.09
2022-08-23T10:23:42.902Z,100112.06
2022-08-23T10:26:23.016Z,100109.22
2022-08-23T10:29:17.327Z,100112.66
2022-08-23T10:31:56.762Z,100115.91
2022-08-23T10:34:47.114Z,100108.63
2022-08-23T10:37:44.624Z,100109.72
2022-08-23T10:40:25.527Z,100111.59
2022-08-23T10:43:08.907Z,100104.25
2022-08-23T10:45:39.143Z,100111.03
2022-08-23T10:48:22.035Z,100102.00
2022-08-23T10:50:55.723Z,100096.06
2022-08-23T10:53:32.124Z,100102.25
2022-08-23T10:56:04.169Z,100098.91
2022-08-23T10:58:35.618Z,100097.78
2022-08-23T11:01:07.447Z,100095.53
2022-08-23T11:03:42.939Z,100088.53
2022-08-23T11:06:40.949Z,100087.03
2022-08-23T11:09:29.395Z,100081.69
2022-08-23T11:12:13.076Z,100080.03
2022-08-23T11:14:46.532Z,100077.13
2022-08-23T11:17:27.785Z,100068.97
2022-08-23T11:19:57.194Z,100069.16
2022-08-23T11:22:28.205Z,100076.47
2022-08-23T11:25:01.018Z,100075.44
2022-08-23T11:27:38.050Z,100061.31
2022-08-23T11:30:47.601Z,100066.66
2022-08-23T11:33:19.760Z,100061.25
2022-08-23T11:35:51.591Z,100057.69
2022-08-23T11:38:55.583Z,100064.19
2022-08-23T11:41:26.991Z,100065.53
2022-08-23T11:44:28.012Z,100063.97
2022-08-23T11:47:04.941Z,100057.94
2022-08-23T11:50:04.105Z,100061.75
2022-08-23T11:52:53.975Z,100061.75
2022-08-23T11:55:57.785Z,100049.28
2022-08-23T11:58:43.831Z,100050.75
2022-08-23T12:01:13.791Z,100045.50
2022-08-23T12:03:57.057Z,100053.09
2022-08-23T12:06:50.996Z,100054.38
2022-08-23T12:09:51.524Z,100049.53
2022-08-23T12:12:40.021Z,100056.09
2022-08-23T12:15:13.672Z,100046.81
2022-08-23T12:18:13.390Z,100043.19
2022-08-23T12:20:42.079Z,100041.53
2022-08-23T12:23:22.281Z,100035.81
2022-08-23T12:26:08.648Z,100030.28
2022-08-23T12:28:43.312Z,100034.13
2022-08-23T12:31:26.401Z,100033.00
2022-08-23T12:34:05.498Z,100023.91
2022-08-23T12:36:41.028Z,100031.88
2022-08-23T12:39:20.085Z,100035.13
2022-08-23T12:41:55.660Z,100038.47
2022-08-23T12:44:27.391Z,100035.34
2022-08-23T12:46:57.716Z,100033.31
2022-08-23T12:49:28.807Z,100026.50
2022-08-23T12:51:59.312Z,100023.38
2022-08-23T12:54:36.258Z,100033.66
2022-08-23T12:57:11.524Z,100031.22
2022-08-23T12:59:44.647Z,100027.47
2022-08-23T13:02:19.229Z,100026.06
2022-08-23T13:04:47.565Z,100028.69
2022-08-23T13:07:20.657Z,100026.75
2022-08-23T13:09:53.551Z,100024.88
2022-08-23T13:12:24.037Z,100024.00
2022-08-23T13:14:54.336Z,100022.69
2022-08-23T13:17:33.066Z,100012.16
2022-08-23T13:20:22.107Z,100016.97
2022-08-23T13:23:03.254Z,100008.03
2022-08-23T13:25:34.873Z,100013.19
2022-08-23T13:28:06.106Z,100004.78
2022-08-23T13:30:36.321Z,100008.31
2022-08-23T13:33:23.264Z,100005.00
2022-08-23T13:35:53.804Z,100003.44
2022-08-23T13:38:25.826Z,100009.28
2022-08-23T13:41:01.158Z,99999.56
2022-08-23T13:43:33.778Z,99994.53
2022-08-23T13:46:12.946Z,99990.00
2022-08-23T13:48:48.592Z,99994.09
2022-08-23T13:51:29.301Z,99996.50
2022-08-23T13:53:59.091Z,99996.97
2022-08-23T13:56:28.198Z,99996.81
2022-08-23T13:58:58.566Z,99995.00
2022-08-23T14:01:26.385Z,99994.06
2022-08-23T14:03:55.803Z,99995.88
2022-08-23T14:06:23.959Z,99993.22
2022-08-23T14:08:51.776Z,99990.34
2022-08-23T14:11:20.291Z,99992.13
2022-08-23T14:13:49.778Z,99985.31
2022-08-23T14:16:40.232Z,99985.94
2022-08-23T14:19:16.585Z,99981.03
2022-08-23T14:22:00.536Z,99980.81
2022-08-23T14:24:29.221Z,99979.00
2022-08-23T14:26:57.893Z,99973.88
2022-08-23T14:29:29.001Z,99984.16
2022-08-23T14:31:58.004Z,99981.59
2022-08-23T14:34:28.110Z,99974.34
2022-08-23T14:39:43.911Z,99988.25
2022-08-23T14:42:14.113Z,99984.88
2022-08-23T14:44:45.508Z,99982.25
2022-08-23T14:47:13.130Z,99973.97
2022-08-23T14:49:42.211Z,99985.69
2022-08-23T14:52:10.097Z,99979.16
2022-08-23T14:54:37.770Z,99973.66
2022-08-23T14:57:05.915Z,99980.69
2022-08-23T14:59:33.681Z,99977.56
2022-08-23T15:02:01.675Z,99975.84
2022-08-23T15:04:34.789Z,99975.59
2022-08-23T15:07:21.433Z,99969.09
2022-08-23T15:09:50.468Z,99981.72
2022-08-23T15:15:12.326Z,99970.97
2022-08-23T15:17:45.975Z,99971.94
2022-08-23T15:20:13.933Z,99970.00
2022-08-23T15:22:44.601Z,99967.50
2022-08-23T15:25:14.799Z,99967.63
2022-08-23T15:27:42.843Z,99967.72
2022-08-23T15:30:12.010Z,99964.19
2022-08-23T15:32:39.821Z,99957.75
2022-08-23T15:35:20.244Z,99953.47
2022-08-23T15:37:50.528Z,99957.88
2022-08-23T15:40:18.320Z,99954.25
2022-08-23T15:42:45.992Z,99959.59
2022-08-23T15:45:13.650Z,99951.47
2022-08-23T15:47:48.095Z,99960.50
2022-08-23T15:50:17.503Z,99953.63
2022-08-23T15:52:45.104Z,99949.91
2022-08-23T15:55:15.672Z,99951.38
2022-08-23T15:57:47.655Z,99958.53
2022-08-23T16:00:18.008Z,99951.19
2022-08-23T16:03:18.826Z,99949.81
2022-08-23T16:05:34.277Z,99952.47
2022-08-23T16:08:01.923Z,99953.72
2022-08-23T16:10:30.990Z,99952.31
2022-08-23T16:12:58.820Z,99950.50
2022-08-23T16:15:26.680Z,99955.44
2022-08-23T16:17:54.633Z,99955.91
2022-08-23T16:20:22.253Z,99953.97
2022-08-23T16:22:49.889Z,99946.00
2022-08-23T16:25:17.752Z,99947.59
2022-08-23T16:27:46.747Z,99950.88
2022-08-23T16:30:15.412Z,99952.78
2022-08-23T16:32:43.426Z,99947.94
2022-08-23T16:35:11.519Z,99944.81
2022-08-23T16:37:39.213Z,99950.03
2022-08-23T16:40:09.241Z,99949.91
2022-08-23T16:42:36.947Z,99943.22
2022-08-23T16:45:07.608Z,99952.31
2022-08-23T16:47:40.580Z,99951.97
2022-08-23T16:50:09.307Z,99947.44
2022-08-23T16:52:37.277Z,99955.44
2022-08-23T16:55:06.975Z,99956.56
2022-08-23T16:57:34.912Z,99949.88
2022-08-23T17:00:03.033Z,99949.41
2022-08-23T17:02:34.785Z,99956.41
2022-08-23T17:05:03.849Z,99953.31
2022-08-23T17:07:31.593Z,99951.22
2022-08-23T17:09:59.230Z,99951.03
2022-08-23T17:12:27.859Z,99954.13
2022-08-23T17:14:57.187Z,99957.22
2022-08-23T17:17:25.278Z,99958.03
2022-08-23T17:19:54.245Z,99957.22
2022-08-23T17:22:21.861Z,99955.44
2022-08-23T17:24:50.058Z,99964.06
2022-08-23T17:27:20.951Z,99959.28
2022-08-23T17:29:48.873Z,99958.31
2022-08-23T17:32:19.284Z,99969.03
2022-08-23T17:34:46.949Z,99969.34
2022-08-23T17:37:18.555Z,99967.03
2022-08-23T17:39:46.395Z,99970.91
2022-08-23T17:42:14.424Z,99975.09
2022-08-23T17:44:42.196Z,99980.47
2022-08-23T17:47:15.405Z,99985.59
2022-08-23T17:49:43.879Z,99979.47
2022-08-23T17:52:12.519Z,99980.84
2022-08-23T17:54:42.185Z,99984.91
2022-08-23T17:57:12.621Z,99990.81
2022-08-23T17:59:40.923Z,99992.34
2022-08-23T18:02:11.602Z,99995.59
2022-08-23T18:04:39.874Z,99990.03
2022-08-23T18:07:08.238Z,100005.31
2022-08-23T18:09:38.989Z,99996.50
2022-08-23T18:12:13.376Z,99997.94
2022-08-23T18:14:41.039Z,100003.38
2022-08-23T18:17:08.856Z,100001.50
2022-08-23T18:19:36.616Z,100004.19
2022-08-23T18:22:04.464Z,100010.03
2022-08-23T18:24:32.457Z,100009.00
2022-08-23T18:27:21.404Z,100007.28
2022-08-23T18:29:51.717Z,100006.69
2022-08-23T18:32:20.503Z,100013.44
2022-08-23T18:34:48.236Z,100013.41
2022-08-23T18:37:17.228Z,100028.59
2022-08-23T18:39:45.355Z,100027.47
2022-08-23T18:42:13.273Z,100036.09
2022-08-23T18:44:41.436Z,100035.38
2022-08-23T18:47:11.493Z,100031.16
2022-08-23T18:49:39.433Z,100036.03
2022-08-23T18:52:07.587Z,100041.13
2022-08-23T18:54:37.312Z,100047.28
2022-08-23T18:57:05.722Z,100045.41
2022-08-23T18:59:33.478Z,100047.13
2022-08-23T19:02:01.560Z,100049.88
2022-08-23T19:04:31.161Z,100051.22
2022-08-23T19:07:00.381Z,100057.25
2022-08-23T19:09:27.976Z,100057.03
2022-08-23T19:11:55.850Z,100064.59
2022-08-23T19:14:24.028Z,100064.47
2022-08-23T19:16:51.790Z,100067.09
2022-08-23T19:19:19.874Z,100073.47
2022-08-23T19:21:49.255Z,100076.22
2022-08-23T19:24:17.593Z,100086.91
2022-08-23T19:26:47.504Z,100085.56
2022-08-23T19:29:18.418Z,100078.22
2022-08-23T19:31:48.034Z,100085.41
2022-08-23T19:34:16.688Z,100086.88
2022-08-23T19:36:49.345Z,100090.03
2022-08-23T19:39:21.056Z,100087.41
2022-08-23T19:41:49.354Z,100087.03
2022-08-23T19:44:17.812Z,100082.19
2022-08-23T19:46:46.429Z,100093.56
2022-08-23T19:49:15.583Z,100092.53
2022-08-23T19:51:44.016Z,100094.75
2022-08-23T19:54:13.521Z,100096.16
2022-08-23T19:56:46.789Z,100100.03
2022-08-23T19:59:19.537Z,100100.34
2022-08-23T20:01:47.884Z,100104.78
2022-08-23T20:04:15.580Z,100101.00
2022-08-23T20:06:44.241Z,100112.19
2022-08-23T20:09:12.481Z,100110.88
2022-08-23T20:11:40.417Z,100114.16
2022-08-23T20:14:09.995Z,100115.88
2022-08-23T20:16:41.024Z,100124.72
2022-08-23T20:19:10.882Z,100127.81
2022-08-23T20:21:39.319Z,100132.19
2022-08-23T20:24:06.971Z,100130.34
2022-08-23T20:26:39.061Z,100134.91
2022-08-23T20:29:07.977Z,100125.34
2022-08-23T20:31:40.617Z,100132.78
2022-08-23T20:34:09.892Z,100132.69
2022-08-23T20:36:37.586Z,100132.94
2022-08-23T20:39:05.934Z,100134.34
2022-08-23T20:41:35.969Z,100137.91
2022-08-23T20:44:06.659Z,100140.63
2022-08-23T20:46:34.730Z,100139.22
2022-08-23T20:49:03.765Z,100133.81
2022-08-23T20:51:31.974Z,100143.66
2022-08-23T20:54:04.995Z,100146.47
2022-08-23T20:56:34.948Z,100148.72
2022-08-23T20:59:02.824Z,100143.59
2022-08-23T21:01:32.867Z,100150.44
2022-08-23T21:04:01.112Z,100150.75
2022-08-23T21:06:37.668Z,100148.59
2022-08-23T21:09:05.981Z,100150.81
2022-08-23T21:11:33.579Z,100153.53
2022-08-23T21:14:02.324Z,100160.94
2022-08-23T21:16:30.029Z,100171.34
2022-08-23T21:19:06.039Z,100178.47
2022-08-23T21:21:35.238Z,100177.09
2022-08-23T21:24:03.439Z,100171.41
2022-08-23T21:26:32.143Z,100177.44
2022-08-23T21:28:59.910Z,100181.81
2022-08-23T21:31:28.541Z,100178.03
2022-08-23T21:33:56.368Z,100184.06
2022-08-23T21:36:25.437Z,100187.09
2022-08-23T21:38:54.838Z,100178.38
2022-08-23T21:41:35.692Z,100192.88
2022-08-23T21:44:06.664Z,100199.97
2022-08-23T21:46:35.538Z,100199.97
2022-08-23T21:49:03.261Z,100201.63
2022-08-23T21:51:31.092Z,100207.91
2022-08-23T21:54:04.820Z,100204.91
2022-08-23T21:56:32.602Z,100206.56
2022-08-23T21:59:00.923Z,100199.44
2022-08-23T22:01:29.007Z,100194.50
2022-08-23T22:03:57.375Z,100207.06
2022-08-23T22:06:26.151Z,100204.34
2022-08-23T22:08:53.978Z,100203.22
2022-08-23T22:11:23.848Z,100217.72
2022-08-23T22:13:52.279Z,100210.34
2022-08-23T22:16:20.033Z,100205.16
2022-08-23T22:18:47.708Z,100210.09
2022-08-23T22:21:15.463Z,100201.34
2022-08-23T22:23:44.676Z,100213.38
2022-08-23T22:26:13.656Z,100205.72
2022-08-23T22:28:44.594Z,100215.84
2022-08-23T22:31:14.773Z,100207.59
2022-08-23T22:33:44.988Z,100210.06
2022-08-23T22:36:16.451Z,100210.03
2022-08-23T22:38:44.762Z,100200.19
2022-08-23T22:41:15.779Z,100210.31
2022-08-23T22:43:44.836Z,100209.19
2022-08-23T22:46:12.959Z,100208.66
2022-08-23T22:48:40.961Z,100204.00
2022-08-23T22:51:10.778Z,100206.44
2022-08-23T22:53:40.360Z,100209.75
2022-08-23T22:56:09.353Z,100212.72
2022-08-23T22:58:37.075Z,100217.63
2022-08-23T23:01:10.800Z,100212.44
2022-08-23T23:03:41.646Z,100217.34
2022-08-23T23:06:10.195Z,100218.16
2022-08-23T23:08:38.028Z,100221.72
2022-08-23T23:11:08.207Z,100218.16
2022-08-23T23:13:36.270Z,100223.88
2022-08-23T23:16:10.504Z,100221.16
2022-08-23T23:18:40.192Z,100223.59
2022-08-23T23:21:10.016Z,100225.22
2022-08-23T23:23:38.986Z,100223.88
2022-08-23T23:26:08.095Z,100234.53
2022-08-23T23:28:35.760Z,100230.97
2022-08-23T23:31:07.611Z,100236.41
2022-08-23T23:33:35.299Z,100229.03
2022-08-23T23:36:04.718Z,100230.69
2022-08-23T23:38:32.319Z,100242.38
2022-08-23T23:41:00.408Z,100248.34
2022-08-23T23:43:31.142Z,100254.91
2022-08-23T23:45:59.016Z,100254.03
2022-08-23T23:48:28.157Z,100248.66
2022-08-23T23:50:55.721Z,100253.94
2022-08-23T23:53:23.378Z,100254.19
2022-08-23T23:56:00.772Z,100253.66
2022-08-23T23:58:28.603Z,100252.28
